createdAt,value
2022-11-05T00:00:26.663Z,85.50
2022-11-05T00:01:26.406Z,85.50
2022-11-05T00:02:26.324Z,85.19
2022-11-05T00:03:47.273Z,85.60
2022-11-05T00:04:30.766Z,85.39
2022-11-05T00:05:26.326Z,85.60
2022-11-05T00:06:26.063Z,85.39
2022-11-05T00:07:25.987Z,85.30
2022-11-05T00:08:25.918Z,85.39
2022-11-05T00:09:25.875Z,85.50
2022-11-05T00:10:25.917Z,85.50
2022-11-05T00:11:25.886Z,85.60
2022-11-05T00:12:25.694Z,85.91
2022-11-05T00:13:25.639Z,85.60
2022-11-05T00:14:25.563Z,86.32
2022-11-05T00:15:25.765Z,85.80
2022-11-05T00:16:46.398Z,85.60
2022-11-05T00:17:25.372Z,85.91
2022-11-05T00:18:25.287Z,85.91
2022-11-05T00:19:25.249Z,86.01
2022-11-05T00:20:25.181Z,86.11
2022-11-05T00:21:25.132Z,85.91
2022-11-05T00:22:25.043Z,85.71
2022-11-05T00:23:24.964Z,85.91
2022-11-05T00:24:25.070Z,85.71
2022-11-05T00:25:24.833Z,85.80
2022-11-05T00:26:24.993Z,86.01
2022-11-05T00:27:25.057Z,86.22
2022-11-05T00:28:24.659Z,86.42
2022-11-05T00:29:24.581Z,86.32
2022-11-05T00:30:24.524Z,86.52
2022-11-05T00:31:24.579Z,86.63
2022-11-05T00:32:24.407Z,86.32
2022-11-05T00:33:24.358Z,86.11
2022-11-05T00:34:24.499Z,86.11
2022-11-05T00:35:24.204Z,86.22
2022-11-05T00:36:24.148Z,86.22
2022-11-05T00:37:24.092Z,85.80
2022-11-05T00:38:24.015Z,85.71
2022-11-05T00:41:03.069Z,85.50
2022-11-05T00:42:05.015Z,85.50
2022-11-05T00:43:03.949Z,85.39
2022-11-05T00:44:03.892Z,85.30
2022-11-05T00:45:03.848Z,85.60
2022-11-05T00:46:03.742Z,85.71
2022-11-05T00:47:03.674Z,85.50
2022-11-05T00:48:03.831Z,85.39
2022-11-05T00:49:03.554Z,85.39
2022-11-05T00:50:03.610Z,85.09
2022-11-05T00:51:03.452Z,85.09
2022-11-05T00:52:03.383Z,85.30
2022-11-05T00:53:03.317Z,85.09
2022-11-05T00:54:03.239Z,84.68
2022-11-05T00:55:03.203Z,84.99
2022-11-05T00:56:03.107Z,85.09
2022-11-05T00:57:24.032Z,84.37
2022-11-05T00:58:02.999Z,84.37
2022-11-05T00:59:02.909Z,84.47
2022-11-05T01:00:02.879Z,84.88
2022-11-05T01:01:02.799Z,84.58
2022-11-05T01:02:02.874Z,84.58
2022-11-05T01:03:02.680Z,84.58
2022-11-05T01:04:02.720Z,84.58
2022-11-05T01:05:02.545Z,84.78
2022-11-05T01:06:02.474Z,84.78
2022-11-05T01:07:02.408Z,84.58
2022-11-05T01:08:02.352Z,84.78
2022-11-05T01:09:02.317Z,84.78
2022-11-05T01:10:02.237Z,84.88
2022-11-05T01:11:02.182Z,84.78
2022-11-05T01:12:02.105Z,84.47
2022-11-05T01:13:02.027Z,84.58
2022-11-05T01:14:02.010Z,84.47
2022-11-05T01:15:01.948Z,84.58
2022-11-05T01:16:01.840Z,84.58
2022-11-05T01:17:01.988Z,84.58
2022-11-05T01:18:01.938Z,84.37
2022-11-05T01:19:01.662Z,84.17
2022-11-05T01:20:01.587Z,84.27
2022-11-05T01:21:22.719Z,84.27
2022-11-05T01:22:01.453Z,84.27
2022-11-05T01:23:01.387Z,84.27
2022-11-05T01:24:01.302Z,84.37
2022-11-05T01:25:01.285Z,84.58
2022-11-05T01:26:01.325Z,84.68
2022-11-05T01:27:01.169Z,84.47
2022-11-05T01:28:01.057Z,84.47
2022-11-05T01:29:01.086Z,84.37
2022-11-05T01:30:00.935Z,84.47
2022-11-05T01:31:00.916Z,84.37
2022-11-05T01:32:01.555Z,84.37
2022-11-05T01:33:00.788Z,84.47
2022-11-05T01:34:00.708Z,84.58
2022-11-05T01:35:00.624Z,84.37
2022-11-05T01:36:00.570Z,84.37
2022-11-05T01:37:00.518Z,84.47
2022-11-05T01:38:00.423Z,84.68
2022-11-05T01:39:00.649Z,84.58
2022-11-05T01:40:00.319Z,84.47
2022-11-05T01:41:00.472Z,84.78
2022-11-05T01:42:00.186Z,84.68
2022-11-05T01:43:00.123Z,84.99
2022-11-05T01:44:00.080Z,85.19
2022-11-05T01:45:00.023Z,85.09
2022-11-05T01:45:59.916Z,85.19
2022-11-05T01:46:59.858Z,85.19
2022-11-05T01:47:59.795Z,85.09
2022-11-05T01:49:03.147Z,85.19
2022-11-05T01:49:59.674Z,85.50
2022-11-05T01:50:59.649Z,85.80
2022-11-05T01:51:59.558Z,85.71
2022-11-05T01:52:59.500Z,85.50
2022-11-05T01:53:59.412Z,85.80
2022-11-05T01:54:59.363Z,85.80
2022-11-05T01:55:59.354Z,85.71
2022-11-05T01:56:59.324Z,85.80
2022-11-05T01:57:59.115Z,85.50
2022-11-05T01:58:59.092Z,85.71
2022-11-05T01:59:59.182Z,86.01
2022-11-05T02:00:58.931Z,86.25
2022-11-05T02:01:59.049Z,86.15
2022-11-05T02:02:59.024Z,85.95
2022-11-05T02:03:58.801Z,85.80
2022-11-05T02:04:58.739Z,85.60
2022-11-05T02:05:58.668Z,85.71
2022-11-05T02:06:58.590Z,86.22
2022-11-05T02:07:58.520Z,86.32
2022-11-05T02:08:58.487Z,86.05
2022-11-05T02:09:58.417Z,85.85
2022-11-05T02:10:58.348Z,86.15
2022-11-05T02:11:58.378Z,86.36
2022-11-05T02:12:58.215Z,86.25
2022-11-05T02:13:58.159Z,86.15
2022-11-05T02:14:58.115Z,86.46
2022-11-05T02:15:58.015Z,86.36
2022-11-05T02:16:57.968Z,86.66
2022-11-05T02:17:57.896Z,86.46
2022-11-05T02:18:57.825Z,86.15
2022-11-05T02:19:57.762Z,86.36
2022-11-05T02:20:58.634Z,86.57
2022-11-05T02:21:57.658Z,86.22
2022-11-05T02:22:57.687Z,86.32
2022-11-05T02:23:57.620Z,86.11
2022-11-05T02:24:57.458Z,86.32
2022-11-05T02:25:57.390Z,86.32
2022-11-05T02:26:57.700Z,86.42
2022-11-05T02:27:57.250Z,86.52
2022-11-05T02:28:58.005Z,86.11
2022-11-05T02:29:57.131Z,86.42
2022-11-05T02:30:57.076Z,86.52
2022-11-05T02:31:57.027Z,86.32
2022-11-05T02:32:56.969Z,86.11
2022-11-05T02:33:57.091Z,86.52
2022-11-05T02:34:56.815Z,86.93
2022-11-05T02:35:56.752Z,86.87
2022-11-05T02:36:56.713Z,86.57
2022-11-05T02:37:56.594Z,87.08
2022-11-05T02:38:56.560Z,86.77
2022-11-05T02:39:56.507Z,86.98
2022-11-05T02:40:56.420Z,86.66
2022-11-05T02:41:59.281Z,86.46
2022-11-05T02:42:56.330Z,86.46
2022-11-05T02:43:56.243Z,86.66
2022-11-05T02:47:25.202Z,86.87
2022-11-05T02:48:26.143Z,86.77
2022-11-05T02:49:26.099Z,86.57
2022-11-05T02:50:26.012Z,86.77
2022-11-05T02:51:25.959Z,86.66
2022-11-05T02:52:25.879Z,86.46
2022-11-05T02:53:25.838Z,86.66
2022-11-05T02:54:25.779Z,86.66
2022-11-05T02:55:25.771Z,86.66
2022-11-05T02:56:25.622Z,86.66
2022-11-05T02:57:26.341Z,86.57
2022-11-05T02:58:25.516Z,86.57
2022-11-05T02:59:25.446Z,86.46
2022-11-05T03:00:25.376Z,86.57
2022-11-05T03:01:25.712Z,86.46
2022-11-05T03:02:25.454Z,86.57
2022-11-05T03:05:04.166Z,86.66
2022-11-05T03:06:05.090Z,86.57
2022-11-05T03:07:05.181Z,86.98
2022-11-05T03:08:04.987Z,87.28
2022-11-05T03:09:04.946Z,86.77
2022-11-05T03:10:04.960Z,86.66
2022-11-05T03:11:04.787Z,86.57
2022-11-05T03:12:04.751Z,86.46
2022-11-05T03:13:04.652Z,86.57
2022-11-05T03:14:04.577Z,86.77
2022-11-05T03:15:04.543Z,86.77
2022-11-05T03:16:04.469Z,86.46
2022-11-05T03:17:04.404Z,86.46
2022-11-05T03:18:04.327Z,86.57
2022-11-05T03:19:04.262Z,86.66
2022-11-05T03:20:04.228Z,86.77
2022-11-05T03:21:04.182Z,87.18
2022-11-05T03:22:04.074Z,88.21
2022-11-05T03:23:04.024Z,88.51
2022-11-05T03:24:03.973Z,88.82
2022-11-05T03:25:03.883Z,89.03
2022-11-05T03:26:03.822Z,89.13
2022-11-05T03:28:42.717Z,89.54
2022-11-05T03:29:43.623Z,89.95
2022-11-05T03:30:43.592Z,90.26
2022-11-05T03:31:43.522Z,90.56
2022-11-05T03:32:43.456Z,90.67
2022-11-05T03:33:43.335Z,90.97
2022-11-05T03:34:43.318Z,91.22
2022-11-05T03:35:43.274Z,91.53
2022-11-05T03:36:44.215Z,91.84
2022-11-05T03:37:43.140Z,92.46
2022-11-05T03:38:43.080Z,93.02
2022-11-05T03:39:43.015Z,92.55
2022-11-05T03:40:42.921Z,92.72
2022-11-05T03:41:43.660Z,93.07
2022-11-05T03:42:42.827Z,92.86
2022-11-05T03:43:42.733Z,92.35
2022-11-05T03:44:42.695Z,92.35
2022-11-05T03:45:42.648Z,92.55
2022-11-05T03:46:42.554Z,92.55
2022-11-05T03:47:42.500Z,92.97
2022-11-05T03:48:42.481Z,92.25
2022-11-05T03:49:42.383Z,92.14
2022-11-05T03:50:42.296Z,91.33
2022-11-05T03:51:42.218Z,91.42
2022-11-05T03:52:42.186Z,89.69
2022-11-05T03:53:42.089Z,89.27
2022-11-05T03:54:42.045Z,89.27
2022-11-05T03:55:41.997Z,89.99
2022-11-05T03:56:41.918Z,90.50
2022-11-05T03:57:41.848Z,90.61
2022-11-05T03:58:41.787Z,90.30
2022-11-05T03:59:41.846Z,89.89
2022-11-05T04:00:41.658Z,90.09
2022-11-05T04:01:41.776Z,90.30
2022-11-05T04:02:41.891Z,90.61
2022-11-05T04:03:41.749Z,90.61
2022-11-05T04:04:41.389Z,90.40
2022-11-05T04:05:41.395Z,90.20
2022-11-05T04:06:41.487Z,89.69
2022-11-05T04:07:41.225Z,89.27
2022-11-05T04:08:41.168Z,88.96
2022-11-05T04:09:41.117Z,88.86
2022-11-05T04:10:41.035Z,88.70
2022-11-05T04:11:40.960Z,88.70
2022-11-05T04:12:40.904Z,88.70
2022-11-05T04:13:40.851Z,89.01
2022-11-05T04:14:40.793Z,89.11
2022-11-05T04:16:01.694Z,89.11
2022-11-05T04:16:40.873Z,89.21
2022-11-05T04:17:40.566Z,88.80
2022-11-05T04:18:40.523Z,88.29
2022-11-05T04:19:40.440Z,88.70
2022-11-05T04:20:41.135Z,89.01
2022-11-05T04:21:40.353Z,88.49
2022-11-05T04:22:40.482Z,88.29
2022-11-05T04:23:40.211Z,88.18
2022-11-05T04:24:40.141Z,89.31
2022-11-05T04:25:40.080Z,90.24
2022-11-05T04:26:40.026Z,90.85
2022-11-05T04:27:39.943Z,91.06
2022-11-05T04:28:39.893Z,91.16
2022-11-05T04:29:39.805Z,91.37
2022-11-05T04:30:39.732Z,91.78
2022-11-05T04:31:39.669Z,92.08
2022-11-05T04:32:39.631Z,91.88
2022-11-05T04:33:39.578Z,91.72
2022-11-05T04:34:40.165Z,91.78
2022-11-05T04:35:39.439Z,91.41
2022-11-05T04:36:39.364Z,90.75
2022-11-05T04:37:39.307Z,90.34
2022-11-05T04:38:39.223Z,89.93
2022-11-05T04:39:39.188Z,89.93
2022-11-05T04:40:40.111Z,90.24
2022-11-05T04:41:39.058Z,89.66
2022-11-05T04:42:38.993Z,89.76
2022-11-05T04:43:38.900Z,89.87
2022-11-05T04:44:38.853Z,89.66
2022-11-05T04:45:38.828Z,89.76
2022-11-05T04:46:38.737Z,89.66
2022-11-05T04:47:38.666Z,89.87
2022-11-05T04:48:38.619Z,90.18
2022-11-05T04:49:38.531Z,90.18
2022-11-05T04:50:38.463Z,90.18
2022-11-05T04:53:17.376Z,90.69
2022-11-05T04:54:18.316Z,90.80
2022-11-05T04:55:18.230Z,90.89
2022-11-05T04:56:18.188Z,90.89
2022-11-05T04:57:18.119Z,90.80
2022-11-05T04:58:18.042Z,90.89
2022-11-05T04:59:17.979Z,90.69
2022-11-05T05:00:17.919Z,90.80
2022-11-05T05:01:18.035Z,91.10
2022-11-05T05:02:17.905Z,91.20
2022-11-05T05:03:17.757Z,91.41
2022-11-05T05:04:17.659Z,91.51
2022-11-05T05:05:17.605Z,91.93
2022-11-05T05:06:17.542Z,91.93
2022-11-05T05:07:17.482Z,91.61
2022-11-05T05:08:17.399Z,91.31
2022-11-05T05:09:17.369Z,91.93
2022-11-05T05:10:17.305Z,91.82
2022-11-05T05:11:17.242Z,91.10
2022-11-05T05:12:17.152Z,91.35
2022-11-05T05:13:17.114Z,91.35
2022-11-05T05:14:17.042Z,91.25
2022-11-05T05:15:17.001Z,91.45
2022-11-05T05:16:16.896Z,91.66
2022-11-05T05:17:16.827Z,92.32
2022-11-05T05:18:16.801Z,92.63
2022-11-05T05:19:16.696Z,92.52
2022-11-05T05:20:16.652Z,92.63
2022-11-05T05:21:16.613Z,93.14
2022-11-05T05:22:16.537Z,93.04
2022-11-05T05:23:16.608Z,92.93
2022-11-05T05:24:16.366Z,93.08
2022-11-05T05:25:16.332Z,93.29
2022-11-05T05:26:16.279Z,93.18
2022-11-05T05:27:16.205Z,93.08
2022-11-05T05:28:16.156Z,92.97
2022-11-05T05:29:16.076Z,92.87
2022-11-05T05:30:16.020Z,92.77
2022-11-05T05:31:15.951Z,92.87
2022-11-05T05:32:15.875Z,93.18
2022-11-05T05:33:15.824Z,93.49
2022-11-05T05:34:15.748Z,93.59
2022-11-05T05:35:15.688Z,93.95
2022-11-05T05:36:15.624Z,93.84
2022-11-05T05:37:15.554Z,93.49
2022-11-05T05:38:15.731Z,93.18
2022-11-05T05:39:15.470Z,92.97
2022-11-05T05:40:15.364Z,92.67
2022-11-05T05:41:15.320Z,92.50
2022-11-05T05:42:15.389Z,92.40
2022-11-05T05:43:15.293Z,92.61
2022-11-05T05:44:15.127Z,93.33
2022-11-05T05:45:36.028Z,93.54
2022-11-05T05:46:14.987Z,93.84
2022-11-05T05:47:14.911Z,94.15
2022-11-05T05:48:14.845Z,94.46
2022-11-05T05:49:14.782Z,94.67
2022-11-05T05:50:14.744Z,94.71
2022-11-05T05:51:14.612Z,94.40
2022-11-05T05:52:14.614Z,94.51
2022-11-05T05:53:14.480Z,94.81
2022-11-05T05:54:14.413Z,94.81
2022-11-05T05:55:14.373Z,94.92
2022-11-05T05:56:14.292Z,94.71
2022-11-05T05:57:14.252Z,94.51
2022-11-05T05:58:14.182Z,94.30
2022-11-05T05:59:14.115Z,93.99
2022-11-05T06:00:14.809Z,93.68
2022-11-05T06:01:18.665Z,93.58
2022-11-05T06:02:14.036Z,93.58
2022-11-05T06:04:52.715Z,94.60
2022-11-05T06:05:53.654Z,94.71
2022-11-05T06:06:53.722Z,95.02
2022-11-05T06:07:54.200Z,94.92
2022-11-05T06:08:53.476Z,94.71
2022-11-05T06:09:53.384Z,94.71
2022-11-05T06:10:53.400Z,94.60
2022-11-05T06:11:53.237Z,94.30
2022-11-05T06:12:53.193Z,94.40
2022-11-05T06:13:53.134Z,94.76
2022-11-05T06:14:53.095Z,94.96
2022-11-05T06:15:53.019Z,95.37
2022-11-05T06:16:52.951Z,95.37
2022-11-05T06:17:52.876Z,95.48
2022-11-05T06:18:52.819Z,95.78
2022-11-05T06:19:52.744Z,95.78
2022-11-05T06:20:52.723Z,95.89
2022-11-05T06:21:52.613Z,95.78
2022-11-05T06:22:54.193Z,95.78
2022-11-05T06:23:52.503Z,96.20
2022-11-05T06:24:52.420Z,96.20
2022-11-05T06:25:52.583Z,96.41
2022-11-05T06:26:52.314Z,96.20
2022-11-05T06:27:52.246Z,96.20
2022-11-05T06:28:52.192Z,96.20
2022-11-05T06:29:52.100Z,96.30
2022-11-05T06:30:52.071Z,96.92
2022-11-05T06:31:51.989Z,97.33
2022-11-05T06:32:52.699Z,97.23
2022-11-05T06:33:51.841Z,97.13
2022-11-05T06:34:51.794Z,97.02
2022-11-05T06:35:51.733Z,97.13
2022-11-05T06:36:51.634Z,97.33
2022-11-05T06:37:51.606Z,97.49
2022-11-05T06:38:51.573Z,97.74
2022-11-05T06:39:51.489Z,97.74
2022-11-05T06:40:51.427Z,97.60
2022-11-05T06:42:16.571Z,97.39
2022-11-05T06:42:51.276Z,97.39
2022-11-05T06:43:51.210Z,97.39
2022-11-05T06:44:51.205Z,97.49
2022-11-05T06:45:51.082Z,97.64
2022-11-05T06:46:51.014Z,97.64
2022-11-05T06:47:50.952Z,97.74
2022-11-05T06:48:50.892Z,97.74
2022-11-05T06:49:50.832Z,97.74
2022-11-05T06:50:50.900Z,97.64
2022-11-05T06:51:50.702Z,97.23
2022-11-05T06:52:50.653Z,97.13
2022-11-05T06:53:50.566Z,97.13
2022-11-05T06:54:50.525Z,96.92
2022-11-05T06:55:50.439Z,96.61
2022-11-05T06:57:11.375Z,96.61
2022-11-05T06:57:50.305Z,96.50
2022-11-05T06:58:50.262Z,96.50
2022-11-05T06:59:50.186Z,96.50
2022-11-05T07:00:50.216Z,96.50
2022-11-05T07:01:50.120Z,96.30
2022-11-05T07:02:50.026Z,96.05
2022-11-05T07:03:49.922Z,96.05
2022-11-05T07:04:49.869Z,95.95
2022-11-05T07:05:50.807Z,95.95
2022-11-05T07:06:49.742Z,96.15
2022-11-05T07:07:49.794Z,96.36
2022-11-05T07:08:49.624Z,96.36
2022-11-05T07:09:49.773Z,96.46
2022-11-05T07:10:49.476Z,96.36
2022-11-05T07:11:49.416Z,96.31
2022-11-05T07:12:49.358Z,96.21
2022-11-05T07:13:49.293Z,95.90
2022-11-05T07:15:10.220Z,95.08
2022-11-05T07:15:49.174Z,94.81
2022-11-05T07:16:49.093Z,94.81
2022-11-05T07:17:49.021Z,94.60
2022-11-05T07:18:48.992Z,94.09
2022-11-05T07:19:48.921Z,94.09
2022-11-05T07:20:48.842Z,94.30
2022-11-05T07:21:48.776Z,94.30
2022-11-05T07:22:48.727Z,94.40
2022-11-05T07:23:48.759Z,94.30
2022-11-05T07:24:48.585Z,94.20
2022-11-05T07:25:48.539Z,94.20
2022-11-05T07:26:48.471Z,94.09
2022-11-05T07:27:48.391Z,94.30
2022-11-05T07:28:48.348Z,94.26
2022-11-05T07:29:48.272Z,94.15
2022-11-05T07:30:48.217Z,94.15
2022-11-05T07:31:48.150Z,93.95
2022-11-05T07:33:09.570Z,93.74
2022-11-05T07:33:48.025Z,93.43
2022-11-05T07:34:47.955Z,93.33
2022-11-05T07:35:47.882Z,93.12
2022-11-05T07:36:47.812Z,93.12
2022-11-05T07:37:47.757Z,92.82
2022-11-05T07:38:47.724Z,92.61
2022-11-05T07:39:47.617Z,92.40
2022-11-05T07:40:47.562Z,92.25
2022-11-05T07:41:47.505Z,92.36
2022-11-05T07:42:47.428Z,92.36
2022-11-05T07:43:47.371Z,92.36
2022-11-05T07:44:47.307Z,91.74
2022-11-05T07:45:47.249Z,91.33
2022-11-05T07:46:47.169Z,91.33
2022-11-05T07:47:47.098Z,90.92
2022-11-05T07:48:47.038Z,90.72
2022-11-05T07:49:46.978Z,91.02
2022-11-05T07:50:47.217Z,90.81
2022-11-05T07:51:47.096Z,90.51
2022-11-05T07:52:46.775Z,90.72
2022-11-05T07:53:46.738Z,90.72
2022-11-05T07:54:46.655Z,90.57
2022-11-05T07:55:46.610Z,90.57
2022-11-05T07:56:46.557Z,90.26
2022-11-05T07:57:46.480Z,90.67
2022-11-05T07:58:46.424Z,90.16
2022-11-05T07:59:46.934Z,90.16
2022-11-05T08:00:46.627Z,89.64
2022-11-05T08:01:46.563Z,89.19
2022-11-05T08:02:46.454Z,89.19
2022-11-05T08:03:46.270Z,89.70
2022-11-05T08:04:46.053Z,90.53
2022-11-05T08:05:45.980Z,90.63
2022-11-05T08:06:45.901Z,90.63
2022-11-05T08:07:45.851Z,90.69
2022-11-05T08:10:24.654Z,90.95
2022-11-05T08:11:25.555Z,91.10
2022-11-05T08:12:25.515Z,90.69
2022-11-05T08:13:25.448Z,90.28
2022-11-05T08:14:25.488Z,90.08
2022-11-05T08:15:25.347Z,90.38
2022-11-05T08:16:25.237Z,91.10
2022-11-05T08:17:25.193Z,91.41
2022-11-05T08:18:25.119Z,91.76
2022-11-05T08:19:25.047Z,91.55
2022-11-05T08:20:25.074Z,91.35
2022-11-05T08:21:24.936Z,91.55
2022-11-05T08:22:24.875Z,91.25
2022-11-05T08:23:24.818Z,91.25
2022-11-05T08:24:24.729Z,91.45
2022-11-05T08:25:24.682Z,91.04
2022-11-05T08:26:24.595Z,91.14
2022-11-05T08:27:24.571Z,91.14
2022-11-05T08:28:24.509Z,91.25
2022-11-05T08:29:24.420Z,91.00
2022-11-05T08:30:24.397Z,91.41
2022-11-05T08:31:24.328Z,91.00
2022-11-05T08:32:24.231Z,89.93
2022-11-05T08:33:24.181Z,89.93
2022-11-05T08:34:24.097Z,89.78
2022-11-05T08:35:24.054Z,89.33
2022-11-05T08:36:23.965Z,88.72
2022-11-05T08:37:23.929Z,88.27
2022-11-05T08:38:23.847Z,87.96
2022-11-05T08:39:23.949Z,87.55
2022-11-05T08:40:23.716Z,86.99
2022-11-05T08:41:23.702Z,85.97
2022-11-05T08:42:23.601Z,85.77
2022-11-05T08:43:23.551Z,85.77
2022-11-05T08:44:23.464Z,86.04
2022-11-05T08:45:44.400Z,85.15
2022-11-05T08:46:23.480Z,85.52
2022-11-05T08:47:23.290Z,85.63
2022-11-05T08:48:23.219Z,85.42
2022-11-05T08:49:23.133Z,84.39
2022-11-05T08:50:23.100Z,85.22
2022-11-05T08:51:23.054Z,85.22
2022-11-05T08:52:23.072Z,84.80
2022-11-05T08:53:25.119Z,84.80
2022-11-05T08:54:26.758Z,85.01
2022-11-05T08:55:23.812Z,85.01
2022-11-05T08:56:24.352Z,84.70
2022-11-05T08:57:22.669Z,84.91
2022-11-05T08:58:22.570Z,85.22
2022-11-05T08:59:22.511Z,85.63
2022-11-05T09:00:22.442Z,85.07
2022-11-05T09:01:22.459Z,83.95
2022-11-05T09:02:22.500Z,83.64
2022-11-05T09:03:22.250Z,83.19
2022-11-05T09:04:22.182Z,83.60
2022-11-05T09:05:22.140Z,82.68
2022-11-05T09:06:22.517Z,81.93
2022-11-05T09:07:21.990Z,82.13
2022-11-05T09:08:21.934Z,81.79
2022-11-05T09:09:21.868Z,80.76
2022-11-05T09:10:21.836Z,80.52
2022-11-05T09:11:21.731Z,79.80
2022-11-05T09:12:21.697Z,80.01
2022-11-05T09:13:22.006Z,79.50
2022-11-05T09:14:21.760Z,78.99
2022-11-05T09:15:21.501Z,80.01
2022-11-05T09:16:21.420Z,80.32
2022-11-05T09:17:21.359Z,79.60
2022-11-05T09:18:21.415Z,79.80
2022-11-05T09:19:21.252Z,79.36
2022-11-05T09:20:21.168Z,78.23
2022-11-05T09:23:29.666Z,78.13
2022-11-05T09:24:30.595Z,77.22
2022-11-05T09:25:30.540Z,78.13
2022-11-05T09:26:30.466Z,77.83
2022-11-05T09:27:30.414Z,77.52
2022-11-05T09:28:30.351Z,77.01
2022-11-05T09:29:30.279Z,77.72
2022-11-05T09:30:30.198Z,78.03
2022-11-05T09:31:30.147Z,77.28
2022-11-05T09:32:30.095Z,77.48
2022-11-05T09:33:30.044Z,76.22
2022-11-05T09:34:29.965Z,75.82
2022-11-05T09:35:30.099Z,75.98
2022-11-05T09:36:29.841Z,76.39
2022-11-05T09:37:29.763Z,76.29
2022-11-05T09:38:29.720Z,75.64
2022-11-05T09:39:50.835Z,73.91
2022-11-05T09:40:29.577Z,74.08
2022-11-05T09:41:29.738Z,73.88
2022-11-05T09:42:29.444Z,73.64
2022-11-05T09:43:31.991Z,73.64
2022-11-05T09:44:29.310Z,73.74
2022-11-05T09:45:29.276Z,73.23
2022-11-05T09:46:29.193Z,72.92
2022-11-05T09:47:29.330Z,73.13
2022-11-05T09:48:29.077Z,72.62
2022-11-05T09:49:29.016Z,72.41
2022-11-05T09:50:28.952Z,71.91
2022-11-05T09:51:34.901Z,72.31
2022-11-05T09:52:28.830Z,72.48
2022-11-05T09:53:28.753Z,72.78
2022-11-05T09:54:28.756Z,70.14
2022-11-05T09:55:28.648Z,70.89
2022-11-05T09:56:29.153Z,71.43
2022-11-05T09:57:28.533Z,71.84
2022-11-05T09:58:29.069Z,72.17
2022-11-05T09:59:28.618Z,73.60
2022-11-05T10:00:28.301Z,74.21
2022-11-05T10:01:28.373Z,73.26
2022-11-05T10:02:28.261Z,73.97
2022-11-05T10:03:28.137Z,73.97
2022-11-05T10:04:28.042Z,71.80
2022-11-05T10:05:28.059Z,72.62
2022-11-05T10:06:29.159Z,72.41
2022-11-05T10:07:27.867Z,71.70
2022-11-05T10:08:27.807Z,71.97
2022-11-05T10:09:27.743Z,71.64
2022-11-05T10:10:27.680Z,71.02
2022-11-05T10:11:27.601Z,70.21
2022-11-05T10:12:27.554Z,69.80
2022-11-05T10:13:27.506Z,69.09
2022-11-05T10:14:27.431Z,69.23
2022-11-05T10:15:48.468Z,69.60
2022-11-05T10:16:27.295Z,68.96
2022-11-05T10:17:27.226Z,69.16
2022-11-05T10:18:27.178Z,67.87
2022-11-05T10:19:27.103Z,68.88
2022-11-05T10:20:27.047Z,69.26
2022-11-05T10:21:51.517Z,68.96
2022-11-05T10:22:26.892Z,68.18
2022-11-05T10:23:26.838Z,69.02
2022-11-05T10:24:26.798Z,69.02
2022-11-05T10:25:26.726Z,69.06
2022-11-05T10:26:26.681Z,70.04
2022-11-05T10:27:27.163Z,70.04
2022-11-05T10:28:26.529Z,71.53
2022-11-05T10:29:26.459Z,70.62
2022-11-05T10:30:26.400Z,69.49
2022-11-05T10:31:29.313Z,70.99
2022-11-05T10:32:26.282Z,67.10
2022-11-05T10:33:26.249Z,69.60
2022-11-05T10:34:26.164Z,66.72
2022-11-05T10:35:26.105Z,65.99
2022-11-05T10:36:26.019Z,64.97
2022-11-05T10:37:26.081Z,62.53
2022-11-05T10:38:25.905Z,62.71
2022-11-05T10:39:25.914Z,62.20
2022-11-05T10:40:25.817Z,62.30
2022-11-05T10:41:25.726Z,63.79
2022-11-05T10:42:25.675Z,63.29
2022-11-05T10:43:25.808Z,64.40
2022-11-05T10:44:25.536Z,63.35
2022-11-05T10:45:25.473Z,61.63
2022-11-05T10:46:25.408Z,61.97
2022-11-05T10:47:25.329Z,60.88
2022-11-05T10:48:25.275Z,61.69
2022-11-05T10:49:26.653Z,61.69
2022-11-05T10:50:25.144Z,63.42
2022-11-05T10:51:25.105Z,62.40
2022-11-05T10:52:25.024Z,61.11
2022-11-05T10:53:24.965Z,61.72
2022-11-05T10:54:24.905Z,61.72
2022-11-05T10:55:24.835Z,61.21
2022-11-05T10:56:24.784Z,61.01
2022-11-05T10:57:45.695Z,61.14
2022-11-05T10:58:24.630Z,61.55
2022-11-05T10:59:24.561Z,61.65
2022-11-05T11:00:24.533Z,61.04
2022-11-05T11:01:24.629Z,61.14
2022-11-05T11:02:24.442Z,60.63
2022-11-05T11:03:24.344Z,60.53
2022-11-05T11:04:24.407Z,60.76
2022-11-05T11:05:24.226Z,60.36
2022-11-05T11:06:24.158Z,61.47
2022-11-05T11:07:24.056Z,60.46
2022-11-05T11:08:24.021Z,61.17
2022-11-05T11:09:24.005Z,61.68
2022-11-05T11:10:23.885Z,61.27
2022-11-05T11:11:23.852Z,61.88
2022-11-05T11:12:23.986Z,60.97
2022-11-05T11:13:23.688Z,61.88
2022-11-05T11:14:23.648Z,61.78
2022-11-05T11:15:23.583Z,61.57
2022-11-05T11:16:23.525Z,61.78
2022-11-05T11:17:23.454Z,61.68
2022-11-05T11:18:23.366Z,60.49
2022-11-05T11:19:23.323Z,61.40
2022-11-05T11:20:23.263Z,61.30
2022-11-05T11:21:23.218Z,61.91
2022-11-05T11:22:23.368Z,61.02
2022-11-05T11:23:23.058Z,62.14
2022-11-05T11:24:23.012Z,61.74
2022-11-05T11:25:22.945Z,62.35
2022-11-05T11:26:22.866Z,61.97
2022-11-05T11:27:22.806Z,62.07
2022-11-05T11:28:22.987Z,62.58
2022-11-05T11:29:22.683Z,62.37
2022-11-05T11:30:22.621Z,63.06
2022-11-05T11:31:22.601Z,62.55
2022-11-05T11:32:22.467Z,62.45
2022-11-05T11:33:22.424Z,62.96
2022-11-05T11:34:22.383Z,62.45
2022-11-05T11:35:22.313Z,62.14
2022-11-05T11:36:22.225Z,62.27
2022-11-05T11:37:22.203Z,62.58
2022-11-05T11:38:22.127Z,61.97
2022-11-05T11:39:22.057Z,62.88
2022-11-05T11:40:22.015Z,61.56
2022-11-05T11:41:21.928Z,62.27
2022-11-05T11:42:21.880Z,61.46
2022-11-05T11:43:22.472Z,60.85
2022-11-05T11:44:21.751Z,61.25
2022-11-05T11:45:42.655Z,60.24
2022-11-05T11:46:21.622Z,61.25
2022-11-05T11:47:21.551Z,61.66
2022-11-05T11:48:21.462Z,61.05
2022-11-05T11:49:21.430Z,61.87
2022-11-05T11:50:21.357Z,62.58
2022-11-05T11:51:21.651Z,62.14
2022-11-05T11:52:21.232Z,61.94
2022-11-05T11:53:21.158Z,60.72
2022-11-05T11:54:21.075Z,61.20
2022-11-05T11:55:21.030Z,60.99
2022-11-05T11:56:20.987Z,60.76
2022-11-05T11:57:21.054Z,59.75
2022-11-05T11:58:20.862Z,59.75
2022-11-05T11:59:21.389Z,59.31
2022-11-05T12:00:20.738Z,57.66
2022-11-05T12:01:20.689Z,57.97
2022-11-05T12:02:20.732Z,57.05
2022-11-05T12:04:59.535Z,57.33
2022-11-05T12:06:00.328Z,58.14
2022-11-05T12:07:00.251Z,56.92
2022-11-05T12:08:00.183Z,57.12
2022-11-05T12:09:06.567Z,56.92
2022-11-05T12:10:00.067Z,57.23
2022-11-05T12:11:00.876Z,57.03
2022-11-05T12:12:00.955Z,56.21
2022-11-05T12:12:59.861Z,56.39
2022-11-05T12:13:59.812Z,56.54
2022-11-05T12:14:59.831Z,57.18
2022-11-05T12:15:59.687Z,56.80
2022-11-05T12:16:59.626Z,57.34
2022-11-05T12:17:59.556Z,57.23
2022-11-05T12:19:00.397Z,57.71
2022-11-05T12:19:59.428Z,56.57
2022-11-05T12:20:59.968Z,55.83
2022-11-05T12:21:59.308Z,56.13
2022-11-05T12:22:59.887Z,55.25
2022-11-05T12:24:00.123Z,54.64
2022-11-05T12:24:59.179Z,53.55
2022-11-05T12:25:59.063Z,53.14
2022-11-05T12:26:59.020Z,53.98
2022-11-05T12:27:59.825Z,53.67
2022-11-05T12:29:18.013Z,54.11
2022-11-05T12:29:58.790Z,53.02
2022-11-05T12:30:59.386Z,54.03
2022-11-05T12:31:58.640Z,54.36
2022-11-05T12:32:59.390Z,55.07
2022-11-05T12:33:58.545Z,55.89
2022-11-05T12:34:58.493Z,56.73
2022-11-05T12:35:58.563Z,57.65
2022-11-05T12:36:58.353Z,58.26
2022-11-05T12:37:58.294Z,58.76
2022-11-05T12:38:58.237Z,58.69
2022-11-05T12:39:58.186Z,58.18
2022-11-05T12:40:58.072Z,57.67
2022-11-05T12:41:58.045Z,58.69
2022-11-05T12:42:57.967Z,58.11
2022-11-05T12:43:58.109Z,58.92
2022-11-05T12:44:57.879Z,58.21
2022-11-05T12:45:57.797Z,59.43
2022-11-05T12:46:57.716Z,59.03
2022-11-05T12:47:57.667Z,58.92
2022-11-05T12:48:57.709Z,59.03
2022-11-05T12:49:57.548Z,59.43
2022-11-05T12:50:57.494Z,60.38
2022-11-05T12:51:57.414Z,60.17
2022-11-05T12:52:57.351Z,60.58
2022-11-05T12:53:57.285Z,60.89
2022-11-05T12:54:57.233Z,60.28
2022-11-05T12:55:57.869Z,60.89
2022-11-05T12:56:57.135Z,60.69
2022-11-05T12:57:57.033Z,60.99
2022-11-05T12:58:57.639Z,60.48
2022-11-05T12:59:56.903Z,60.38
2022-11-05T13:00:56.897Z,60.78
2022-11-05T13:01:56.857Z,60.89
2022-11-05T13:02:56.723Z,61.02
2022-11-05T13:03:56.860Z,60.82
2022-11-05T13:04:56.593Z,60.61
2022-11-05T13:06:02.942Z,60.71
2022-11-05T13:06:56.460Z,61.63
2022-11-05T13:07:56.373Z,60.92